createdAt,value
2022-09-15T00:09:15.574Z,10.02
2022-09-15T00:19:24.755Z,9.86
2022-09-15T00:29:31.765Z,9.79
2022-09-15T00:39:38.759Z,9.94
2022-09-15T00:49:46.406Z,9.75
2022-09-15T01:01:13.486Z,9.75
2022-09-15T01:11:24.041Z,9.73
2022-09-15T01:22:50.135Z,9.48
2022-09-15T03:33:24.090Z,9.19
2022-09-15T05:21:31.585Z,9.19
2022-09-15T05:35:35.460Z,9.01
2022-09-15T05:51:00.368Z,9.01
2022-09-15T06:06:23.764Z,9.52
2022-09-15T07:01:41.537Z,11.73
2022-09-15T07:14:26.159Z,11.73
2022-09-15T08:55:52.033Z,11.80
2022-09-15T09:33:49.360Z,16.12
2022-09-15T09:57:12.543Z,18.54
2022-09-15T10:07:18.699Z,17.79
2022-09-15T10:18:48.997Z,16.70
2022-09-15T10:28:58.103Z,16.70
2022-09-15T10:43:04.674Z,16.89
2022-09-15T11:27:39.634Z,18.66
2022-09-15T11:37:45.299Z,18.66
2022-09-15T11:49:12.596Z,16.25
2022-09-15T11:59:19.195Z,15.24
2022-09-15T12:09:26.726Z,15.51
2022-09-15T12:19:34.635Z,17.73
2022-09-15T12:31:03.063Z,20.38
2022-09-15T12:41:14.017Z,21.52
2022-09-15T12:51:21.838Z,19.98
2022-09-15T13:01:27.845Z,17.75
2022-09-15T15:57:14.142Z,13.31
2022-09-15T16:09:59.228Z,13.26
2022-09-15T16:24:04.997Z,13.26
2022-09-15T16:40:47.609Z,13.38
2022-09-15T16:54:51.962Z,12.38
2022-09-15T17:04:58.068Z,12.38
2022-09-15T17:15:05.287Z,12.09
2022-09-15T17:25:12.275Z,11.94
2022-09-15T17:35:19.569Z,11.94
2022-09-15T17:56:02.404Z,11.85
2022-09-15T18:06:07.689Z,11.48
2022-09-15T18:16:15.328Z,11.48
2022-09-15T18:26:26.357Z,10.92
2022-09-15T18:37:53.504Z,10.92
2022-09-15T18:49:19.798Z,10.70
2022-09-15T18:59:26.460Z,10.75
2022-09-15T19:13:32.264Z,10.75
2022-09-15T19:23:37.820Z,10.97
2022-09-15T19:33:47.122Z,10.65
2022-09-15T19:45:13.990Z,10.65
2022-09-15T19:57:59.781Z,10.80
2022-09-15T20:08:05.587Z,10.57
2022-09-15T20:18:12.319Z,10.57
2022-09-15T20:29:39.074Z,10.47
2022-09-15T20:39:45.529Z,10.06
2022-09-15T20:52:35.914Z,10.06
2022-09-15T21:02:42.067Z,9.68
2022-09-15T21:12:49.005Z,9.68
2022-09-15T21:22:55.987Z,9.32
2022-09-15T21:33:03.044Z,9.32
2022-09-15T21:43:10.111Z,9.48
2022-09-15T21:53:17.115Z,9.65
2022-09-15T22:04:43.008Z,9.75
2022-09-15T22:16:09.055Z,9.52
2022-09-15T22:26:15.329Z,9.54
2022-09-15T22:36:25.235Z,9.32
2022-09-15T22:46:33.769Z,9.24
2022-09-15T22:56:40.243Z,9.24
2022-09-15T23:08:06.240Z,9.01
2022-09-15T23:18:12.055Z,8.80
2022-09-15T23:28:19.029Z,8.73
2022-09-15T23:38:26.261Z,8.83
2022-09-15T23:48:33.298Z,8.59
2022-09-15T23:58:40.858Z,8.58
